createdAt,value
2018-06-02T00:00:10.353Z,144
2018-06-02T00:00:22.790Z,144
2018-06-02T00:00:35.316Z,144
2018-06-02T00:00:47.763Z,144
2018-06-02T00:01:00.215Z,144
2018-06-02T00:01:12.663Z,144
2018-06-02T00:01:25.091Z,144
2018-06-02T00:01:37.555Z,144
2018-06-02T00:01:49.992Z,144
2018-06-02T00:02:02.423Z,144
2018-06-02T00:02:14.873Z,144
2018-06-02T00:02:27.319Z,144
2018-06-02T00:02:39.771Z,138
2018-06-02T00:02:52.219Z,138
2018-06-02T00:03:04.636Z,138
2018-06-02T00:03:17.049Z,138
2018-06-02T00:03:29.495Z,121
2018-06-02T00:03:41.913Z,121
2018-06-02T00:03:54.325Z,96
2018-06-02T00:04:06.789Z,96
2018-06-02T00:04:19.225Z,96
2018-06-02T00:04:31.696Z,96
2018-06-02T00:04:44.164Z,96
2018-06-02T00:04:56.574Z,96
2018-06-02T00:05:09.000Z,96
2018-06-02T00:05:21.437Z,96
2018-06-02T00:05:33.859Z,96
2018-06-02T00:05:46.298Z,96
2018-06-02T00:05:58.744Z,96
2018-06-02T00:06:11.166Z,96
2018-06-02T00:06:23.610Z,96
2018-06-02T00:06:36.027Z,96
2018-06-02T00:06:48.480Z,96
2018-06-02T00:07:00.927Z,96
2018-06-02T00:07:13.356Z,96
2018-06-02T00:07:25.809Z,96
2018-06-02T00:07:38.242Z,96
2018-06-02T00:07:50.684Z,96
2018-06-02T00:08:03.104Z,112
2018-06-02T00:08:15.511Z,144
2018-06-02T00:08:28.002Z,153
2018-06-02T00:08:40.423Z,153
2018-06-02T00:08:52.827Z,153
2018-06-02T00:09:05.236Z,153
2018-06-02T00:09:17.636Z,153
2018-06-02T00:09:30.075Z,152
2018-06-02T00:09:42.496Z,134
2018-06-02T00:09:55.194Z,137
2018-06-02T00:10:07.627Z,155
2018-06-02T00:10:20.065Z,136
2018-06-02T00:10:32.493Z,136
2018-06-02T00:10:44.948Z,144
2018-06-02T00:10:57.394Z,144
2018-06-02T00:11:10.443Z,144
2018-06-02T00:11:23.538Z,144
2018-06-02T00:11:36.097Z,144
2018-06-02T00:11:48.503Z,144
2018-06-02T00:12:00.916Z,144
2018-06-02T00:12:13.341Z,144
2018-06-02T00:12:25.757Z,144
2018-06-02T00:12:38.170Z,144
2018-06-02T00:12:50.630Z,144
2018-06-02T00:13:03.059Z,144
2018-06-02T00:13:15.495Z,125
2018-06-02T00:13:27.944Z,127
2018-06-02T00:13:40.378Z,127
2018-06-02T00:13:52.806Z,127
2018-06-02T00:14:05.229Z,127
2018-06-02T00:14:17.638Z,127
2018-06-02T00:14:30.133Z,127
2018-06-02T00:14:42.567Z,127
2018-06-02T00:14:55.078Z,127
2018-06-02T00:15:07.529Z,127
2018-06-02T00:15:19.958Z,127
2018-06-02T00:15:32.365Z,127
2018-06-02T00:15:44.810Z,127
2018-06-02T00:15:57.220Z,128
2018-06-02T00:16:09.643Z,127
2018-06-02T00:16:22.062Z,127
2018-06-02T00:16:34.462Z,127
2018-06-02T00:16:46.936Z,127
2018-06-02T00:16:59.357Z,128
2018-06-02T00:17:11.799Z,128
2018-06-02T00:17:24.215Z,127
2018-06-02T00:17:36.655Z,128
2018-06-02T00:17:49.065Z,127
2018-06-02T00:18:01.491Z,128
2018-06-02T00:18:14.002Z,128
2018-06-02T00:18:26.417Z,128
2018-06-02T00:18:38.845Z,128
2018-06-02T00:18:51.294Z,128
2018-06-02T00:19:03.716Z,140
2018-06-02T00:19:16.140Z,140
2018-06-02T00:19:28.566Z,140
2018-06-02T00:19:40.999Z,140
2018-06-02T00:19:53.423Z,140
2018-06-02T00:20:05.839Z,140
2018-06-02T00:20:18.245Z,140
2018-06-02T00:20:30.658Z,140
2018-06-02T00:20:43.072Z,140
2018-06-02T00:20:55.494Z,140
2018-06-02T00:21:07.923Z,140
2018-06-02T00:21:20.338Z,140
2018-06-02T00:21:32.758Z,140
2018-06-02T00:21:45.180Z,140
2018-06-02T00:21:57.658Z,140
2018-06-02T00:22:10.106Z,140
2018-06-02T00:22:22.519Z,140
2018-06-02T00:22:34.933Z,140
2018-06-02T00:22:47.354Z,140
2018-06-02T00:22:59.774Z,140
2018-06-02T00:23:12.268Z,140
2018-06-02T00:23:24.687Z,140
2018-06-02T00:23:37.103Z,140
2018-06-02T00:23:49.575Z,140
2018-06-02T00:24:01.977Z,140
2018-06-02T00:24:14.382Z,140
2018-06-02T00:24:26.800Z,140
2018-06-02T00:24:39.222Z,140
2018-06-02T00:24:51.677Z,140
2018-06-02T00:25:04.092Z,140
2018-06-02T00:25:16.515Z,140
2018-06-02T00:25:28.990Z,140
2018-06-02T00:25:41.529Z,140
2018-06-02T00:25:53.939Z,140
2018-06-02T00:26:06.418Z,140
2018-06-02T00:26:18.844Z,140
2018-06-02T00:26:31.297Z,140
2018-06-02T00:26:43.721Z,140
2018-06-02T00:26:56.138Z,140
2018-06-02T00:27:08.577Z,140
2018-06-02T00:27:21.001Z,140
2018-06-02T00:27:33.417Z,140
2018-06-02T00:27:45.830Z,140
2018-06-02T00:27:58.259Z,140
2018-06-02T00:28:10.704Z,140
2018-06-02T00:28:23.156Z,140
2018-06-02T00:28:35.671Z,140
2018-06-02T00:28:48.075Z,140
2018-06-02T00:29:00.480Z,140
2018-06-02T00:29:12.890Z,140
2018-06-02T00:29:25.301Z,140
2018-06-02T00:29:37.756Z,140
2018-06-02T00:29:50.191Z,140
2018-06-02T00:30:02.616Z,140
2018-06-02T00:30:15.028Z,140
2018-06-02T00:30:27.440Z,140
2018-06-02T00:30:39.856Z,140
2018-06-02T00:30:52.275Z,140
2018-06-02T00:31:04.690Z,140
2018-06-02T00:31:17.098Z,140
2018-06-02T00:31:29.526Z,140
2018-06-02T00:31:41.946Z,140
2018-06-02T00:31:54.357Z,140
2018-06-02T00:32:06.776Z,140
2018-06-02T00:32:19.213Z,140
2018-06-02T00:32:31.621Z,140
2018-06-02T00:32:44.040Z,140
2018-06-02T00:32:56.476Z,140
2018-06-02T00:33:08.909Z,140
2018-06-02T00:33:21.318Z,140
2018-06-02T00:33:33.736Z,140
2018-06-02T00:33:46.513Z,140
2018-06-02T00:33:58.947Z,140
2018-06-02T00:34:11.384Z,140
2018-06-02T00:34:23.825Z,140
2018-06-02T00:34:36.265Z,140
2018-06-02T00:34:48.720Z,140
2018-06-02T00:35:01.299Z,140
2018-06-02T00:35:13.719Z,140
2018-06-02T00:35:26.193Z,140
2018-06-02T00:35:38.666Z,140
2018-06-02T00:35:51.081Z,140
2018-06-02T00:36:03.512Z,140
2018-06-02T00:36:15.938Z,140
2018-06-02T00:36:28.361Z,140
2018-06-02T00:36:40.781Z,140
2018-06-02T00:36:53.186Z,140
2018-06-02T00:37:05.606Z,140
2018-06-02T00:37:18.045Z,140
2018-06-02T00:37:30.453Z,140
2018-06-02T00:37:42.870Z,140
2018-06-02T00:37:55.303Z,140
2018-06-02T00:38:07.760Z,140
2018-06-02T00:38:20.191Z,140
2018-06-02T00:38:32.604Z,140
2018-06-02T00:38:45.028Z,140
2018-06-02T00:38:57.447Z,140
2018-06-02T00:39:09.883Z,140
2018-06-02T00:39:22.297Z,140
2018-06-02T00:39:34.727Z,140
2018-06-02T00:39:47.185Z,140
2018-06-02T00:39:59.636Z,140
2018-06-02T00:40:12.076Z,140
2018-06-02T00:40:24.502Z,140
2018-06-02T00:40:36.925Z,140
2018-06-02T00:40:49.349Z,140
2018-06-02T00:41:01.754Z,140
2018-06-02T00:41:14.698Z,140
2018-06-02T00:41:27.140Z,140
2018-06-02T00:41:39.554Z,140
2018-06-02T00:41:51.962Z,140
2018-06-02T00:42:04.401Z,140
2018-06-02T00:42:16.846Z,140
2018-06-02T00:42:29.448Z,140
2018-06-02T00:42:42.004Z,140
2018-06-02T00:42:54.453Z,140
2018-06-02T00:43:06.897Z,140
2018-06-02T00:43:19.311Z,140
2018-06-02T00:43:31.748Z,140
2018-06-02T00:43:44.176Z,140
2018-06-02T00:43:56.622Z,140
2018-06-02T00:44:09.050Z,140
2018-06-02T00:44:21.442Z,140
2018-06-02T00:44:33.857Z,140
2018-06-02T00:44:46.275Z,140
2018-06-02T00:44:58.690Z,140
2018-06-02T00:45:11.105Z,140
2018-06-02T00:45:23.506Z,140
2018-06-02T00:45:35.918Z,140
2018-06-02T00:45:48.333Z,144
2018-06-02T00:46:00.756Z,144
2018-06-02T00:46:13.176Z,144
2018-06-02T00:46:25.584Z,144
2018-06-02T00:46:38.013Z,145
2018-06-02T00:46:50.421Z,155
2018-06-02T00:47:02.831Z,155
2018-06-02T00:47:15.272Z,155
2018-06-02T00:47:27.677Z,155
2018-06-02T00:47:40.096Z,155
2018-06-02T00:47:52.540Z,155
2018-06-02T00:48:04.957Z,155
2018-06-02T00:48:17.372Z,147
2018-06-02T00:48:29.931Z,147
2018-06-02T00:48:42.355Z,140
2018-06-02T00:48:54.762Z,155
2018-06-02T00:49:07.215Z,154
2018-06-02T00:49:19.665Z,154
2018-06-02T00:49:32.119Z,154
2018-06-02T00:49:44.665Z,154
2018-06-02T00:49:57.093Z,154
2018-06-02T00:50:09.543Z,154
2018-06-02T00:50:22.202Z,154
2018-06-02T00:50:34.614Z,154
2018-06-02T00:50:47.044Z,154
2018-06-02T00:50:59.471Z,154
2018-06-02T00:51:11.904Z,154
2018-06-02T00:51:24.312Z,154
2018-06-02T00:51:36.744Z,154
2018-06-02T00:51:49.164Z,154
2018-06-02T00:52:01.579Z,154
2018-06-02T00:52:14.019Z,154
2018-06-02T00:52:26.428Z,154
2018-06-02T00:52:38.957Z,154
2018-06-02T00:52:51.384Z,154
2018-06-02T00:53:03.796Z,154
2018-06-02T00:53:16.240Z,154
2018-06-02T00:53:28.658Z,154
2018-06-02T00:53:41.115Z,154
2018-06-02T00:53:53.536Z,154
2018-06-02T00:54:05.953Z,154
2018-06-02T00:54:18.383Z,154
2018-06-02T00:54:30.793Z,154
2018-06-02T00:54:43.221Z,154
2018-06-02T00:54:55.625Z,154
2018-06-02T00:55:08.046Z,154
2018-06-02T00:55:20.453Z,154
2018-06-02T00:55:32.866Z,154
2018-06-02T00:55:45.380Z,154
2018-06-02T00:55:57.790Z,154
2018-06-02T00:56:10.237Z,154
2018-06-02T00:56:22.679Z,154
2018-06-02T00:56:35.196Z,154
2018-06-02T00:56:47.607Z,154
2018-06-02T00:57:00.035Z,154
2018-06-02T00:57:12.484Z,154
2018-06-02T00:57:24.901Z,154
2018-06-02T00:57:37.331Z,154
2018-06-02T00:57:49.753Z,154
2018-06-02T00:58:02.160Z,154
2018-06-02T00:58:14.591Z,154
2018-06-02T00:58:27.177Z,154
2018-06-02T00:58:39.582Z,154
2018-06-02T00:58:52.026Z,154
2018-06-02T00:59:04.451Z,154
2018-06-02T00:59:16.854Z,154
2018-06-02T00:59:29.278Z,154
2018-06-02T00:59:41.685Z,154
2018-06-02T00:59:54.143Z,154
2018-06-02T01:00:06.572Z,154
2018-06-02T01:00:18.999Z,154
2018-06-02T01:00:31.450Z,154
2018-06-02T01:00:43.975Z,154
2018-06-02T01:00:56.427Z,154
2018-06-02T01:01:08.898Z,154
2018-06-02T01:01:21.352Z,154
2018-06-02T01:01:33.793Z,154
2018-06-02T01:01:46.233Z,154
2018-06-02T01:01:58.663Z,154
2018-06-02T01:02:11.096Z,154
2018-06-02T01:02:23.535Z,154
2018-06-02T01:02:35.949Z,154
2018-06-02T01:02:48.366Z,154
2018-06-02T01:03:00.869Z,154
2018-06-02T01:03:13.290Z,154
2018-06-02T01:03:25.724Z,154
2018-06-02T01:03:38.208Z,154
2018-06-02T01:03:50.663Z,154
2018-06-02T01:04:03.111Z,154
2018-06-02T01:04:15.529Z,154
2018-06-02T01:04:27.944Z,154
2018-06-02T01:04:40.358Z,154
2018-06-02T01:04:52.796Z,154
2018-06-02T01:05:05.235Z,154
2018-06-02T01:05:17.652Z,154
2018-06-02T01:05:30.244Z,154
2018-06-02T01:05:42.741Z,154
2018-06-02T01:05:55.166Z,154
2018-06-02T01:06:07.596Z,154
2018-06-02T01:06:20.079Z,154
2018-06-02T01:06:32.506Z,154
2018-06-02T01:06:44.928Z,154
2018-06-02T01:06:57.356Z,154
2018-06-02T01:07:09.781Z,154
2018-06-02T01:07:22.255Z,154
2018-06-02T01:07:34.709Z,154
2018-06-02T01:07:47.138Z,154
2018-06-02T01:07:59.583Z,154
2018-06-02T01:08:12.045Z,154
2018-06-02T01:08:24.461Z,154
2018-06-02T01:08:36.894Z,154
2018-06-02T01:08:49.348Z,154
2018-06-02T01:09:01.791Z,154
2018-06-02T01:09:14.289Z,154
2018-06-02T01:09:26.757Z,154
2018-06-02T01:09:39.175Z,154
2018-06-02T01:09:52.052Z,154
2018-06-02T01:10:04.476Z,154
2018-06-02T01:10:16.937Z,154
2018-06-02T01:10:29.420Z,154
2018-06-02T01:10:42.041Z,154
2018-06-02T01:10:54.461Z,154
2018-06-02T01:11:06.880Z,154
2018-06-02T01:11:19.306Z,154
2018-06-02T01:11:31.710Z,154
2018-06-02T01:11:44.142Z,154
2018-06-02T01:11:56.548Z,154
2018-06-02T01:12:08.961Z,154
2018-06-02T01:12:21.386Z,154
2018-06-02T01:12:33.813Z,154
2018-06-02T01:12:46.232Z,154
2018-06-02T01:12:58.648Z,154
2018-06-02T01:13:11.092Z,154
2018-06-02T01:13:23.504Z,154
2018-06-02T01:13:35.940Z,154
2018-06-02T01:13:48.376Z,154
2018-06-02T01:14:00.781Z,154
2018-06-02T01:14:13.203Z,154
2018-06-02T01:14:25.639Z,154
2018-06-02T01:14:38.090Z,154
2018-06-02T01:14:50.534Z,154
2018-06-02T01:15:02.958Z,154
2018-06-02T01:15:15.388Z,154
2018-06-02T01:15:27.817Z,154
2018-06-02T01:15:40.279Z,154
2018-06-02T01:15:52.709Z,154
2018-06-02T01:16:05.115Z,154
2018-06-02T01:16:17.551Z,154
2018-06-02T01:16:29.958Z,154
2018-06-02T01:16:42.370Z,154
2018-06-02T01:16:54.780Z,154
2018-06-02T01:17:07.202Z,154
2018-06-02T01:17:19.629Z,154
2018-06-02T01:17:32.035Z,154
2018-06-02T01:17:44.541Z,154
2018-06-02T01:17:56.974Z,154
2018-06-02T01:18:09.575Z,154
2018-06-02T01:18:21.984Z,154
2018-06-02T01:18:34.399Z,154
2018-06-02T01:18:46.797Z,154
2018-06-02T01:18:59.258Z,154
2018-06-02T01:19:11.734Z,154
2018-06-02T01:19:24.180Z,154
2018-06-02T01:19:36.591Z,154
2018-06-02T01:19:49.001Z,154
2018-06-02T01:20:01.453Z,154
2018-06-02T01:20:13.882Z,154
2018-06-02T01:20:26.308Z,154
2018-06-02T01:20:38.748Z,154
2018-06-02T01:20:51.543Z,154
2018-06-02T01:21:04.319Z,154
2018-06-02T01:21:16.726Z,154
2018-06-02T01:21:29.138Z,154
2018-06-02T01:21:41.554Z,154
2018-06-02T01:21:53.991Z,154
2018-06-02T01:22:06.411Z,154
2018-06-02T01:22:18.813Z,154
2018-06-02T01:22:31.219Z,154
2018-06-02T01:22:43.641Z,154
2018-06-02T01:22:56.096Z,154
2018-06-02T01:23:08.519Z,154
2018-06-02T01:23:20.921Z,154
2018-06-02T01:23:33.346Z,154
2018-06-02T01:23:45.765Z,154
2018-06-02T01:23:58.233Z,154
2018-06-02T01:24:10.695Z,154
2018-06-02T01:24:23.154Z,154
2018-06-02T01:24:35.583Z,154
2018-06-02T01:24:47.995Z,154
2018-06-02T01:25:00.434Z,154
2018-06-02T01:25:12.870Z,154
2018-06-02T01:25:25.292Z,154
2018-06-02T01:25:37.730Z,154
2018-06-02T01:25:50.312Z,154
2018-06-02T01:26:02.723Z,154
2018-06-02T01:26:15.176Z,154
2018-06-02T01:26:27.614Z,154
2018-06-02T01:26:40.023Z,154
2018-06-02T01:26:52.439Z,154
2018-06-02T01:27:04.925Z,154
2018-06-02T01:27:17.359Z,154
2018-06-02T01:27:29.775Z,154
2018-06-02T01:27:42.186Z,154
2018-06-02T01:27:54.616Z,154
2018-06-02T01:28:07.035Z,154
2018-06-02T01:28:19.427Z,154
2018-06-02T01:28:31.887Z,154
2018-06-02T01:28:44.356Z,154
2018-06-02T01:28:56.837Z,154
2018-06-02T01:29:09.252Z,154
2018-06-02T01:29:21.686Z,154
2018-06-02T01:29:34.140Z,154
2018-06-02T01:29:46.569Z,154
2018-06-02T01:29:58.988Z,154
2018-06-02T01:30:11.418Z,154
2018-06-02T01:30:23.835Z,154
2018-06-02T01:30:36.281Z,154
2018-06-02T01:30:48.712Z,154
2018-06-02T01:31:01.128Z,154
2018-06-02T01:31:13.579Z,154
2018-06-02T01:31:26.041Z,154
2018-06-02T01:31:38.485Z,154
2018-06-02T01:31:50.938Z,154
2018-06-02T01:32:03.391Z,154
2018-06-02T01:32:15.831Z,154
2018-06-02T01:32:28.302Z,154
2018-06-02T01:32:40.870Z,154
2018-06-02T01:32:53.319Z,154
2018-06-02T01:33:05.764Z,154
2018-06-02T01:33:18.190Z,154
2018-06-02T01:33:30.592Z,154
2018-06-02T01:33:43.012Z,154
2018-06-02T01:33:55.444Z,154
2018-06-02T01:34:07.882Z,154
2018-06-02T01:34:20.491Z,154
2018-06-02T01:34:32.901Z,154
2018-06-02T01:34:45.311Z,154
2018-06-02T01:34:57.748Z,154
2018-06-02T01:35:10.349Z,154
2018-06-02T01:35:22.854Z,154
2018-06-02T01:35:35.298Z,154
2018-06-02T01:35:47.747Z,154
2018-06-02T01:36:00.187Z,154
2018-06-02T01:36:12.616Z,154
2018-06-02T01:36:25.045Z,154
2018-06-02T01:36:37.493Z,154
2018-06-02T01:36:49.892Z,154
2018-06-02T01:37:02.335Z,154
2018-06-02T01:37:14.851Z,154
2018-06-02T01:37:27.284Z,154
2018-06-02T01:37:39.705Z,154
2018-06-02T01:37:52.125Z,154
2018-06-02T01:38:04.562Z,155
2018-06-02T01:38:16.979Z,155
2018-06-02T01:38:29.393Z,155
2018-06-02T01:38:41.827Z,155
2018-06-02T01:38:54.232Z,155
2018-06-02T01:39:06.655Z,155
2018-06-02T01:39:19.116Z,155
2018-06-02T01:39:31.545Z,155
2018-06-02T01:39:43.971Z,155
2018-06-02T01:39:56.444Z,155
2018-06-02T01:40:08.884Z,155
2018-06-02T01:40:21.299Z,155
2018-06-02T01:40:33.735Z,155
2018-06-02T01:40:46.157Z,155
2018-06-02T01:40:58.568Z,155
2018-06-02T01:41:11.275Z,155
2018-06-02T01:41:23.693Z,155
2018-06-02T01:41:36.112Z,155
2018-06-02T01:41:48.504Z,155
2018-06-02T01:42:00.939Z,155
2018-06-02T01:42:13.370Z,155
2018-06-02T01:42:25.799Z,155
2018-06-02T01:42:38.216Z,155
2018-06-02T01:42:50.821Z,155
2018-06-02T01:43:03.259Z,161
2018-06-02T01:43:15.690Z,161
2018-06-02T01:43:28.142Z,161
2018-06-02T01:43:40.543Z,161
2018-06-02T01:43:52.956Z,161
2018-06-02T01:44:05.374Z,161
2018-06-02T01:44:17.774Z,161
2018-06-02T01:44:30.206Z,161
2018-06-02T01:44:42.620Z,161
2018-06-02T01:44:55.075Z,161
2018-06-02T01:45:07.496Z,163
2018-06-02T01:45:19.933Z,163
2018-06-02T01:45:32.348Z,162
2018-06-02T01:45:44.799Z,162
2018-06-02T01:45:57.222Z,162
2018-06-02T01:46:09.646Z,159
2018-06-02T01:46:22.119Z,159
2018-06-02T01:46:34.541Z,161
2018-06-02T01:46:46.990Z,161
2018-06-02T01:46:59.396Z,161
2018-06-02T01:47:11.830Z,161
2018-06-02T01:47:24.288Z,161
2018-06-02T01:47:36.724Z,161
2018-06-02T01:47:49.134Z,170
2018-06-02T01:48:01.554Z,170
2018-06-02T01:48:13.992Z,188
2018-06-02T01:48:26.584Z,175
2018-06-02T01:48:39.005Z,175
2018-06-02T01:48:51.425Z,175
2018-06-02T01:49:03.862Z,175
2018-06-02T01:49:16.271Z,175
2018-06-02T01:49:28.693Z,159
2018-06-02T01:49:41.098Z,159
2018-06-02T01:49:53.530Z,159
2018-06-02T01:50:05.961Z,160
2018-06-02T01:50:18.377Z,161
2018-06-02T01:50:30.791Z,152
2018-06-02T01:50:43.217Z,162
2018-06-02T01:50:55.834Z,160
2018-06-02T01:51:08.271Z,160
2018-06-02T01:51:20.704Z,160
2018-06-02T01:51:33.112Z,159
2018-06-02T01:51:45.536Z,159
2018-06-02T01:51:57.978Z,159
2018-06-02T01:52:10.396Z,161
2018-06-02T01:52:22.809Z,161
2018-06-02T01:52:35.229Z,161
2018-06-02T01:52:47.826Z,161
2018-06-02T01:53:00.266Z,161
2018-06-02T01:53:12.687Z,161
2018-06-02T01:53:25.138Z,161
2018-06-02T01:53:37.549Z,161
2018-06-02T01:53:49.982Z,161
2018-06-02T01:54:02.453Z,161
2018-06-02T01:54:14.881Z,161
2018-06-02T01:54:27.327Z,161
2018-06-02T01:54:39.749Z,161
2018-06-02T01:54:52.161Z,161
2018-06-02T01:55:04.578Z,161
2018-06-02T01:55:16.982Z,161
2018-06-02T01:55:29.429Z,161
2018-06-02T01:55:41.861Z,162
2018-06-02T01:55:54.288Z,162
2018-06-02T01:56:06.691Z,162
2018-06-02T01:56:19.143Z,167
2018-06-02T01:56:31.583Z,167
2018-06-02T01:56:44.015Z,174
2018-06-02T01:56:56.459Z,174
2018-06-02T01:57:08.866Z,174
2018-06-02T01:57:21.276Z,174
2018-06-02T01:57:33.672Z,163
2018-06-02T01:57:46.246Z,163
2018-06-02T01:57:58.658Z,163
2018-06-02T01:58:11.119Z,163
2018-06-02T01:58:23.646Z,163
2018-06-02T01:58:36.066Z,163
2018-06-02T01:58:48.482Z,163
2018-06-02T01:59:00.923Z,163
2018-06-02T01:59:13.417Z,173
2018-06-02T01:59:25.837Z,174
2018-06-02T01:59:38.304Z,174
2018-06-02T01:59:50.763Z,159
2018-06-02T02:00:03.216Z,159
2018-06-02T02:00:15.679Z,159
2018-06-02T02:00:28.123Z,159
2018-06-02T02:00:40.628Z,159
2018-06-02T02:00:53.061Z,159
2018-06-02T02:01:05.505Z,159
2018-06-02T02:01:17.956Z,159
2018-06-02T02:01:30.390Z,159
2018-06-02T02:01:42.831Z,159
2018-06-02T02:01:55.283Z,159
2018-06-02T02:02:07.704Z,159
2018-06-02T02:02:20.163Z,159
2018-06-02T02:02:32.610Z,159
2018-06-02T02:02:45.047Z,159
2018-06-02T02:02:57.474Z,159
2018-06-02T02:03:09.927Z,159
2018-06-02T02:03:22.393Z,159
2018-06-02T02:03:34.843Z,155
2018-06-02T02:03:47.255Z,155
2018-06-02T02:03:59.701Z,155
2018-06-02T02:04:12.132Z,155
2018-06-02T02:04:24.573Z,155
2018-06-02T02:04:37.019Z,155
2018-06-02T02:04:49.473Z,155
2018-06-02T02:05:01.935Z,155
2018-06-02T02:05:14.380Z,155
2018-06-02T02:05:26.853Z,155
2018-06-02T02:05:39.323Z,155
2018-06-02T02:05:51.744Z,155
2018-06-02T02:06:04.165Z,155
2018-06-02T02:06:16.621Z,155
2018-06-02T02:06:29.049Z,155
2018-06-02T02:06:41.506Z,155
2018-06-02T02:06:53.955Z,155
2018-06-02T02:07:06.381Z,155
2018-06-02T02:07:18.813Z,155
2018-06-02T02:07:31.272Z,155
2018-06-02T02:07:43.708Z,155
2018-06-02T02:07:56.114Z,155
2018-06-02T02:08:08.561Z,155
2018-06-02T02:08:20.975Z,155
2018-06-02T02:08:33.421Z,155
2018-06-02T02:08:45.823Z,155
2018-06-02T02:08:58.246Z,155
2018-06-02T02:09:10.669Z,155
2018-06-02T02:09:23.104Z,155
2018-06-02T02:09:35.546Z,155
2018-06-02T02:09:47.982Z,161
2018-06-02T02:10:00.685Z,166
2018-06-02T02:10:13.120Z,166
2018-06-02T02:10:25.552Z,166
2018-06-02T02:10:38.017Z,166
2018-06-02T02:10:50.615Z,166
2018-06-02T02:11:03.068Z,166
2018-06-02T02:11:15.461Z,166
2018-06-02T02:11:27.898Z,166
2018-06-02T02:11:40.342Z,166
2018-06-02T02:11:52.787Z,166
2018-06-02T02:12:05.281Z,166
2018-06-02T02:12:17.729Z,166
2018-06-02T02:12:30.134Z,166
2018-06-02T02:12:42.573Z,166
2018-06-02T02:12:54.986Z,166
2018-06-02T02:13:07.400Z,166
2018-06-02T02:13:19.822Z,166
2018-06-02T02:13:32.225Z,166
2018-06-02T02:13:44.650Z,163
2018-06-02T02:13:57.076Z,155
2018-06-02T02:14:09.501Z,155
2018-06-02T02:14:21.934Z,155
2018-06-02T02:14:34.367Z,155
2018-06-02T02:14:46.832Z,155
2018-06-02T02:14:59.279Z,155
2018-06-02T02:15:11.727Z,155
2018-06-02T02:15:24.161Z,155
2018-06-02T02:15:36.566Z,169
2018-06-02T02:15:48.979Z,169
2018-06-02T02:16:01.398Z,169
2018-06-02T02:16:13.812Z,169
2018-06-02T02:16:26.230Z,165
2018-06-02T02:16:38.651Z,165
2018-06-02T02:16:51.064Z,165
2018-06-02T02:17:03.472Z,165
2018-06-02T02:17:15.884Z,165
2018-06-02T02:17:28.329Z,165
2018-06-02T02:17:40.781Z,165
2018-06-02T02:17:53.216Z,165
2018-06-02T02:18:05.662Z,165
2018-06-02T02:18:18.323Z,165
2018-06-02T02:18:30.721Z,165
2018-06-02T02:18:43.133Z,165
2018-06-02T02:18:55.551Z,180
2018-06-02T02:19:07.991Z,190
2018-06-02T02:19:20.414Z,190
2018-06-02T02:19:32.830Z,190
2018-06-02T02:19:45.289Z,190
2018-06-02T02:19:57.717Z,190
2018-06-02T02:20:10.178Z,190
2018-06-02T02:20:22.595Z,198
2018-06-02T02:20:35.016Z,198
2018-06-02T02:20:47.437Z,198
2018-06-02T02:20:59.862Z,198
2018-06-02T02:21:12.334Z,194
2018-06-02T02:21:24.736Z,194
2018-06-02T02:21:37.182Z,194
2018-06-02T02:21:49.625Z,194
2018-06-02T02:22:02.037Z,194
2018-06-02T02:22:14.454Z,195
2018-06-02T02:22:26.869Z,194
2018-06-02T02:22:39.298Z,194
2018-06-02T02:22:51.824Z,194
2018-06-02T02:23:04.258Z,194
2018-06-02T02:23:16.668Z,194
2018-06-02T02:23:29.077Z,194
2018-06-02T02:23:41.487Z,194
2018-06-02T02:23:53.882Z,195
2018-06-02T02:24:06.325Z,194
2018-06-02T02:24:18.739Z,194
2018-06-02T02:24:31.197Z,194
2018-06-02T02:24:43.619Z,194
2018-06-02T02:24:56.031Z,194
2018-06-02T02:25:08.460Z,194
2018-06-02T02:25:20.895Z,194
2018-06-02T02:25:33.337Z,194
2018-06-02T02:25:45.877Z,194
2018-06-02T02:25:58.316Z,194
2018-06-02T02:26:10.738Z,194
2018-06-02T02:26:23.233Z,194
2018-06-02T02:26:35.689Z,194
2018-06-02T02:26:48.119Z,194
2018-06-02T02:27:00.538Z,194
2018-06-02T02:27:12.986Z,194
2018-06-02T02:27:25.425Z,194
2018-06-02T02:27:37.845Z,194
2018-06-02T02:27:50.265Z,194
2018-06-02T02:28:02.684Z,194
2018-06-02T02:28:15.113Z,194
2018-06-02T02:28:27.513Z,194
2018-06-02T02:28:39.914Z,194
2018-06-02T02:28:52.322Z,194
2018-06-02T02:29:04.726Z,194
2018-06-02T02:29:17.142Z,194
2018-06-02T02:29:29.563Z,194
2018-06-02T02:29:41.972Z,194
2018-06-02T02:29:54.403Z,195
2018-06-02T02:30:06.865Z,194
2018-06-02T02:30:19.360Z,195
2018-06-02T02:30:31.835Z,195
2018-06-02T02:30:44.351Z,195
2018-06-02T02:30:56.793Z,194
2018-06-02T02:31:09.231Z,192
2018-06-02T02:31:21.675Z,191
2018-06-02T02:31:34.137Z,191
2018-06-02T02:31:46.580Z,191
2018-06-02T02:31:59.025Z,191
2018-06-02T02:32:11.470Z,191
2018-06-02T02:32:23.901Z,191
2018-06-02T02:32:36.346Z,196
2018-06-02T02:32:48.775Z,196
2018-06-02T02:33:01.234Z,196
2018-06-02T02:33:13.672Z,196
2018-06-02T02:33:26.118Z,196
2018-06-02T02:33:38.554Z,196
2018-06-02T02:33:50.981Z,196
2018-06-02T02:34:03.444Z,196
2018-06-02T02:34:15.879Z,199
2018-06-02T02:34:28.352Z,199
2018-06-02T02:34:40.824Z,199
2018-06-02T02:34:53.431Z,199
2018-06-02T02:35:05.988Z,199
2018-06-02T02:35:18.446Z,199
2018-06-02T02:35:30.871Z,199
2018-06-02T02:35:43.363Z,199
2018-06-02T02:35:55.799Z,198
2018-06-02T02:36:08.259Z,198
2018-06-02T02:36:20.708Z,198
2018-06-02T02:36:33.171Z,198
2018-06-02T02:36:45.676Z,198
2018-06-02T02:36:58.089Z,198
2018-06-02T02:37:10.525Z,198
2018-06-02T02:37:22.957Z,198
2018-06-02T02:37:35.390Z,198
2018-06-02T02:37:47.817Z,198
2018-06-02T02:38:00.231Z,198
2018-06-02T02:38:12.692Z,198
2018-06-02T02:38:25.144Z,198
2018-06-02T02:38:37.570Z,198
2018-06-02T02:38:50.011Z,198
2018-06-02T02:39:02.465Z,198
2018-06-02T02:39:14.967Z,198
2018-06-02T02:39:27.395Z,198
2018-06-02T02:39:39.833Z,198
2018-06-02T02:39:52.279Z,198
2018-06-02T02:40:04.726Z,198
2018-06-02T02:40:17.154Z,198
2018-06-02T02:40:29.619Z,198
2018-06-02T02:40:42.060Z,198
2018-06-02T02:40:54.553Z,198
2018-06-02T02:41:07.102Z,198
2018-06-02T02:41:19.557Z,198
2018-06-02T02:41:32.051Z,198
2018-06-02T02:41:44.599Z,198
2018-06-02T02:41:57.080Z,198
2018-06-02T02:42:09.546Z,198
2018-06-02T02:42:22.036Z,198
2018-06-02T02:42:34.503Z,198
2018-06-02T02:42:47.133Z,198
2018-06-02T02:42:59.572Z,198
2018-06-02T02:43:11.995Z,198
2018-06-02T02:43:24.450Z,198
2018-06-02T02:43:36.924Z,198
2018-06-02T02:43:49.425Z,198
2018-06-02T02:44:01.887Z,198
2018-06-02T02:44:14.347Z,198
2018-06-02T02:44:26.785Z,198
2018-06-02T02:44:39.228Z,198
2018-06-02T02:44:51.666Z,198
2018-06-02T02:45:04.157Z,198
2018-06-02T02:45:16.577Z,198
2018-06-02T02:45:29.119Z,198
2018-06-02T02:45:41.567Z,198
2018-06-02T02:45:53.995Z,198
2018-06-02T02:46:06.457Z,198
2018-06-02T02:46:18.902Z,198
2018-06-02T02:46:31.343Z,198
2018-06-02T02:46:43.803Z,198
2018-06-02T02:46:56.261Z,198
2018-06-02T02:47:08.724Z,198
2018-06-02T02:47:21.160Z,198
2018-06-02T02:47:33.614Z,198
2018-06-02T02:47:46.063Z,198
2018-06-02T02:47:58.556Z,198
2018-06-02T02:48:11.027Z,198
2018-06-02T02:48:23.480Z,198
2018-06-02T02:48:36.077Z,198
2018-06-02T02:48:48.513Z,198
2018-06-02T02:49:01.045Z,198
2018-06-02T02:49:13.475Z,198
2018-06-02T02:49:25.885Z,198
2018-06-02T02:49:38.323Z,198
2018-06-02T02:49:50.764Z,198
2018-06-02T02:50:03.292Z,198
2018-06-02T02:50:15.730Z,198
2018-06-02T02:50:28.201Z,198
2018-06-02T02:50:40.641Z,198
2018-06-02T02:50:53.088Z,198
2018-06-02T02:51:05.550Z,198
2018-06-02T02:51:17.979Z,198
2018-06-02T02:51:30.614Z,198